Time;durP1;ratioP1;P1;durP2;ratioP2;P2;SDS_P1;SDS_P2;PMS_P1;PMS_P2;Temp;Humidity;BMP_temperature;BMP_pressure;BME280_temperature;BME280_humidity;BME280_pressure;Samples;Min_cycle;Max_cycle;Signal;HPM_P1;HPM_P2
2024/04/05 00:01:55;;;;;;;25.40;4.05;;;;;;;;;;5087617;28;20196;-73
2024/04/05 00:04:21;;;;;;;23.15;3.88;;;;;;;;;;5081310;28;20238;-72
2024/04/05 00:06:46;;;;;;;27.30;4.57;;;;;;;;;;5090401;28;20223;-73
2024/04/05 00:09:12;;;;;;;24.45;3.63;;;;;;;;;;5088931;28;20618;-72
2024/04/05 00:11:38;;;;;;;28.60;3.95;;;;;;;;;;5077073;28;20211;-73
2024/04/05 00:14:04;;;;;;;23.40;3.45;;;;;;;;;;5078429;28;20252;-73
2024/04/05 00:16:29;;;;;;;22.10;3.67;;;;;;;;;;5087712;28;20519;-72
2024/04/05 00:18:55;;;;;;;28.58;4.35;;;;;;;;;;5075787;28;20215;-72
2024/04/05 00:21:21;;;;;;;25.00;4.03;;;;;;;;;;5079040;28;20208;-72
2024/04/05 00:23:48;;;;;;;26.08;4.10;;;;;;;;;;5075762;28;20518;-72
2024/04/05 00:26:13;;;;;;;26.65;3.92;;;;;;;;;;5085714;28;20204;-72
2024/04/05 00:28:39;;;;;;;28.10;4.00;;;;;;;;;;5072063;28;20211;-73
2024/04/05 00:31:05;;;;;;;27.13;4.35;;;;;;;;;;5071848;28;20199;-73
2024/04/05 00:33:31;;;;;;;19.33;3.47;;;;;;;;;;5081322;28;20184;-73
2024/04/05 00:35:57;;;;;;;24.55;3.90;;;;;;;;;;5086758;28;20722;-73
2024/04/05 00:38:24;;;;;;;27.58;3.92;;;;;;;;;;5082577;28;20324;-73
2024/04/05 00:40:51;;;;;;;24.67;4.57;;;;;;;;;;5084745;28;20211;-73
2024/04/05 00:43:16;;;;;;;32.00;4.53;;;;;;;;;;5073734;28;20192;-73
2024/04/05 00:45:45;;;;;;;27.50;4.07;;;;;;;;;;5081462;28;20208;-73
2024/04/05 00:48:12;;;;;;;28.30;4.57;;;;;;;;;;5078278;28;20597;-73
2024/04/05 00:50:38;;;;;;;28.80;4.38;;;;;;;;;;5073940;28;20180;-73
2024/04/05 00:53:04;;;;;;;25.50;4.07;;;;;;;;;;5088355;28;20252;-74
2024/04/05 00:55:30;;;;;;;31.10;4.32;;;;;;;;;;5086152;28;20296;-72
2024/04/05 00:58:00;;;;;;;19.98;4.13;;;;;;;;;;5082177;28;20299;-73
2024/04/05 01:00:28;;;;;;;22.27;4.60;;;;;;;;;;5086736;28;20633;-73
2024/04/05 01:02:53;;;;;;;32.20;5.32;;;;;;;;;;5078514;28;20197;-73
2024/04/05 01:05:19;;;;;;;21.38;3.45;;;;;;;;;;5077904;28;20241;-73
2024/04/05 01:07:46;;;;;;;24.52;4.85;;;;;;;;;;5080263;28;20625;-73
2024/04/05 01:10:11;;;;;;;27.75;4.18;;;;;;;;;;5085695;28;20176;-74
2024/04/05 01:12:37;;;;;;;29.38;4.63;;;;;;;;;;5085824;28;20605;-73
2024/04/05 01:15:02;;;;;;;25.77;4.72;;;;;;;;;;5087694;28;20279;-74
2024/04/05 01:17:28;;;;;;;22.52;4.00;;;;;;;;;;5082078;28;20195;-73
2024/04/05 01:19:55;;;;;;;24.17;4.57;;;;;;;;;;5075945;28;20309;-74
2024/04/05 01:22:27;;;;;;;25.27;4.90;;;;;;;;;;5087444;28;20180;-74
2024/04/05 01:24:52;;;;;;;28.30;4.63;;;;;;;;;;5074678;28;20604;-74
2024/04/05 01:27:18;;;;;;;29.38;4.82;;;;;;;;;;5076571;28;20242;-73
2024/04/05 01:29:43;;;;;;;27.80;4.00;;;;;;;;;;5080814;28;20184;-74
2024/04/05 01:32:08;;;;;;;25.98;3.97;;;;;;;;;;5081234;28;20195;-73
2024/04/05 01:34:34;;;;;;;25.42;4.13;;;;;;;;;;5068925;28;20207;-73
2024/04/05 01:37:00;;;;;;;33.50;4.40;;;;;;;;;;5076084;28;20592;-73
2024/04/05 01:39:25;;;;;;;26.83;3.83;;;;;;;;;;5080766;28;20312;-74
2024/04/05 01:41:51;;;;;;;24.23;3.95;;;;;;;;;;5088159;28;20266;-73
2024/04/05 01:44:16;;;;;;;24.63;4.35;;;;;;;;;;5089222;28;20223;-73
2024/04/05 01:46:42;;;;;;;22.42;4.25;;;;;;;;;;5086231;28;20299;-73
2024/04/05 01:49:07;;;;;;;23.55;3.67;;;;;;;;;;5087260;28;20187;-73
2024/04/05 01:51:32;;;;;;;26.48;4.18;;;;;;;;;;5087820;28;20196;-73
2024/04/05 01:53:58;;;;;;;24.23;3.90;;;;;;;;;;5088575;28;20195;-74
2024/04/05 01:56:23;;;;;;;27.05;4.10;;;;;;;;;;5087144;28;20191;-73
2024/04/05 01:58:49;;;;;;;24.40;4.05;;;;;;;;;;5085474;28;20266;-73
2024/04/05 02:01:14;;;;;;;19.13;4.15;;;;;;;;;;5087383;28;20337;-73
2024/04/05 02:03:39;;;;;;;24.25;4.05;;;;;;;;;;5080833;28;20188;-73
2024/04/05 02:06:15;;;;;;;20.20;4.22;;;;;;;;;;5087301;28;20756;-74
2024/04/05 02:08:40;;;;;;;19.20;3.72;;;;;;;;;;5084909;28;20651;-72
2024/04/05 02:11:06;;;;;;;25.30;4.05;;;;;;;;;;5076786;28;20196;-73
2024/04/05 02:13:31;;;;;;;20.38;4.28;;;;;;;;;;5087260;28;20183;-72
2024/04/05 02:15:57;;;;;;;22.92;4.10;;;;;;;;;;5081308;28;20201;-73
2024/04/05 02:18:22;;;;;;;24.83;4.15;;;;;;;;;;5073180;28;20721;-74
2024/04/05 02:20:55;;;;;;;27.23;4.57;;;;;;;;;;5081450;28;20188;-73
2024/04/05 02:23:21;;;;;;;23.42;4.35;;;;;;;;;;5071019;28;20184;-73
2024/04/05 02:25:47;;;;;;;23.40;3.67;;;;;;;;;;5075417;28;20200;-73
2024/04/05 02:28:12;;;;;;;25.20;4.07;;;;;;;;;;5078225;28;20184;-73
2024/04/05 02:30:38;;;;;;;27.50;4.28;;;;;;;;;;5069668;28;20640;-73
2024/04/05 02:33:04;;;;;;;23.30;3.58;;;;;;;;;;5080526;28;20495;-73
2024/04/05 02:35:30;;;;;;;24.67;4.55;;;;;;;;;;5081963;28;20223;-73
2024/04/05 02:37:55;;;;;;;23.65;3.67;;;;;;;;;;5075576;28;20255;-73
2024/04/05 02:40:21;;;;;;;26.90;4.32;;;;;;;;;;5089933;28;20184;-73
2024/04/05 02:42:46;;;;;;;28.35;4.07;;;;;;;;;;5089296;28;20270;-73
2024/04/05 02:45:12;;;;;;;20.42;4.10;;;;;;;;;;5072853;28;20284;-73
2024/04/05 02:47:37;;;;;;;28.95;5.13;;;;;;;;;;5073314;28;20188;-73
2024/04/05 02:50:03;;;;;;;25.40;4.32;;;;;;;;;;5083433;28;20262;-73
2024/04/05 02:52:28;;;;;;;27.92;4.65;;;;;;;;;;5088091;28;20191;-73
2024/04/05 02:54:53;;;;;;;23.77;4.50;;;;;;;;;;5076916;28;20555;-73
2024/04/05 02:57:19;;;;;;;23.83;4.30;;;;;;;;;;5088812;28;20192;-73
2024/04/05 02:59:44;;;;;;;35.35;4.53;;;;;;;;;;5084076;28;20188;-73
2024/04/05 03:02:10;;;;;;;33.95;4.57;;;;;;;;;;5086386;28;20269;-73
2024/04/05 03:04:35;;;;;;;24.75;4.50;;;;;;;;;;5083369;28;20601;-73
2024/04/05 03:07:01;;;;;;;24.38;4.55;;;;;;;;;;5082169;28;20250;-73
2024/04/05 03:09:26;;;;;;;23.33;4.53;;;;;;;;;;5076322;28;20203;-73
2024/04/05 03:11:51;;;;;;;29.52;4.88;;;;;;;;;;5086303;28;20188;-73
2024/04/05 03:14:17;;;;;;;25.33;4.55;;;;;;;;;;5079027;28;20189;-73
2024/04/05 03:16:45;;;;;;;24.92;4.32;;;;;;;;;;5082756;28;20180;-72
2024/04/05 03:19:10;;;;;;;25.85;4.55;;;;;;;;;;5077767;28;20295;-73
2024/04/05 03:21:36;;;;;;;26.13;4.53;;;;;;;;;;5083913;28;20559;-73
2024/04/05 03:24:01;;;;;;;27.75;4.03;;;;;;;;;;5072595;28;20695;-73
2024/04/05 03:26:27;;;;;;;27.77;4.70;;;;;;;;;;5078535;28;20224;-72
2024/04/05 03:28:52;;;;;;;23.63;3.70;;;;;;;;;;5084972;28;20188;-72
2024/04/05 03:31:18;;;;;;;28.50;4.45;;;;;;;;;;5084076;28;20184;-73
2024/04/05 03:33:43;;;;;;;21.25;3.63;;;;;;;;;;5078031;28;20187;-73
2024/04/05 03:36:09;;;;;;;24.80;4.32;;;;;;;;;;5083450;28;20259;-72
2024/04/05 03:38:34;;;;;;;23.08;3.88;;;;;;;;;;5081918;28;20726;-72
2024/04/05 03:41:04;;;;;;;24.92;4.25;;;;;;;;;;5069819;28;20200;-73
2024/04/05 03:43:29;;;;;;;24.52;4.20;;;;;;;;;;5087318;28;20192;-73
2024/04/05 03:45:55;;;;;;;26.38;4.05;;;;;;;;;;5081853;28;20272;-74
2024/04/05 03:48:20;;;;;;;23.63;4.00;;;;;;;;;;5079830;28;20276;-72
2024/04/05 03:50:47;;;;;;;26.13;5.18;;;;;;;;;;5085316;28;20187;-73
2024/04/05 03:53:12;;;;;;;23.83;3.97;;;;;;;;;;5070595;28;20173;-72
2024/04/05 03:55:38;;;;;;;22.02;4.65;;;;;;;;;;5082470;28;20237;-73
2024/04/05 03:58:04;;;;;;;27.20;4.45;;;;;;;;;;5087950;28;20199;-73
2024/04/05 04:00:30;;;;;;;31.70;4.82;;;;;;;;;;5087891;28;20230;-73
2024/04/05 04:02:55;;;;;;;29.35;4.78;;;;;;;;;;5072106;28;20842;-73
2024/04/05 04:05:21;;;;;;;25.23;4.03;;;;;;;;;;5074388;28;20639;-72
2024/04/05 04:07:46;;;;;;;24.10;4.68;;;;;;;;;;5081538;28;20184;-72
2024/04/05 04:10:12;;;;;;;21.88;3.67;;;;;;;;;;5082818;28;20196;-72
2024/04/05 04:12:38;;;;;;;23.00;4.32;;;;;;;;;;5074758;28;20192;-72
2024/04/05 04:15:05;;;;;;;26.13;4.70;;;;;;;;;;5084032;28;20279;-72
2024/04/05 04:17:31;;;;;;;22.63;3.72;;;;;;;;;;5116369;27;20401;-72
2024/04/05 04:19:59;;;;;;;20.48;4.45;;;;;;;;;;5086388;28;20645;-72
2024/04/05 04:22:25;;;;;;;23.10;4.03;;;;;;;;;;5089796;28;20222;-73
2024/04/05 04:24:50;;;;;;;20.77;4.43;;;;;;;;;;5085540;28;20608;-73
2024/04/05 04:27:16;;;;;;;28.02;4.65;;;;;;;;;;5086579;28;20227;-72
2024/04/05 04:29:42;;;;;;;18.17;4.18;;;;;;;;;;5083456;28;20644;-73
2024/04/05 04:32:07;;;;;;;21.23;3.70;;;;;;;;;;5087926;28;20198;-72
2024/04/05 04:34:34;;;;;;;22.58;3.80;;;;;;;;;;5087997;28;20681;-73
2024/04/05 04:36:59;;;;;;;26.23;4.22;;;;;;;;;;5089818;28;20188;-73
2024/04/05 04:39:25;;;;;;;24.20;3.35;;;;;;;;;;5076832;28;20240;-72
2024/04/05 04:41:50;;;;;;;27.75;4.72;;;;;;;;;;5053890;28;20180;-72
2024/04/05 04:44:15;;;;;;;24.63;3.95;;;;;;;;;;5075806;28;20184;-72
2024/04/05 04:46:41;;;;;;;23.85;4.00;;;;;;;;;;5082045;28;20216;-72
2024/04/05 04:49:06;;;;;;;21.40;4.05;;;;;;;;;;5073358;28;20242;-72
2024/04/05 04:51:32;;;;;;;22.08;3.53;;;;;;;;;;5082515;28;20191;-73
2024/04/05 04:53:59;;;;;;;28.17;4.97;;;;;;;;;;5078035;28;20188;-75
2024/04/05 04:56:30;;;;;;;27.15;5.47;;;;;;;;;;5081545;28;20199;-77
2024/04/05 04:58:56;;;;;;;24.70;4.10;;;;;;;;;;5074487;28;20636;-77
2024/04/05 05:01:21;;;;;;;27.90;4.25;;;;;;;;;;5081549;28;20219;-77
2024/04/05 05:03:48;;;;;;;26.90;4.63;;;;;;;;;;5084320;28;20629;-77
2024/04/05 05:06:13;;;;;;;27.33;4.70;;;;;;;;;;5062010;28;20242;-78
2024/04/05 05:08:39;;;;;;;34.92;5.45;;;;;;;;;;5087364;28;20211;-77
2024/04/05 05:11:05;;;;;;;20.73;4.15;;;;;;;;;;5081374;28;20628;-77
2024/04/05 05:13:31;;;;;;;27.90;4.63;;;;;;;;;;5082467;28;20184;-78
2024/04/05 05:15:57;;;;;;;27.73;4.72;;;;;;;;;;5082866;28;20220;-78
2024/04/05 05:18:22;;;;;;;24.67;4.25;;;;;;;;;;5068552;28;20249;-79
2024/04/05 05:20:49;;;;;;;27.83;4.32;;;;;;;;;;5081515;28;20191;-78
2024/04/05 05:23:15;;;;;;;22.73;4.45;;;;;;;;;;5084800;28;20636;-78
2024/04/05 05:25:43;;;;;;;22.67;5.10;;;;;;;;;;5072573;28;20212;-78
2024/04/05 05:28:09;;;;;;;26.50;4.47;;;;;;;;;;5077202;28;20223;-77
2024/04/05 05:30:34;;;;;;;25.02;4.82;;;;;;;;;;5080870;28;20279;-78
2024/04/05 05:33:00;;;;;;;26.08;4.78;;;;;;;;;;5083720;28;20262;-77
2024/04/05 05:35:25;;;;;;;23.15;4.65;;;;;;;;;;5075330;28;20184;-77
2024/04/05 05:37:51;;;;;;;21.48;4.90;;;;;;;;;;5085843;28;20231;-76
2024/04/05 05:40:16;;;;;;;21.40;4.38;;;;;;;;;;5081423;28;20647;-76
2024/04/05 05:42:42;;;;;;;22.35;4.45;;;;;;;;;;5078118;28;20264;-76
2024/04/05 05:45:07;;;;;;;28.13;4.97;;;;;;;;;;5063982;28;20512;-75
2024/04/05 05:47:32;;;;;;;22.27;4.88;;;;;;;;;;5081066;28;20693;-76
2024/04/05 05:49:58;;;;;;;21.63;4.43;;;;;;;;;;5078725;28;20261;-75
2024/04/05 05:52:24;;;;;;;28.17;4.75;;;;;;;;;;5079963;28;20688;-74
2024/04/05 05:54:51;;;;;;;24.27;4.57;;;;;;;;;;5065451;28;20211;-75
2024/04/05 05:57:16;;;;;;;21.73;4.65;;;;;;;;;;5084336;28;20179;-75
2024/04/05 05:59:42;;;;;;;17.33;4.78;;;;;;;;;;5076911;28;20203;-73
2024/04/05 06:02:07;;;;;;;21.92;4.90;;;;;;;;;;5079696;28;20263;-74
2024/04/05 06:04:32;;;;;;;29.83;4.78;;;;;;;;;;5072602;28;20311;-74
2024/04/05 06:06:58;;;;;;;19.05;4.20;;;;;;;;;;5075301;28;20231;-73
2024/04/05 06:09:24;;;;;;;17.40;4.47;;;;;;;;;;5087011;28;20187;-72
2024/04/05 06:11:54;;;;;;;18.02;4.03;;;;;;;;;;5079595;28;20189;-73
2024/04/05 06:14:19;;;;;;;17.60;4.45;;;;;;;;;;5075342;28;20700;-72
2024/04/05 06:16:45;;;;;;;22.80;4.78;;;;;;;;;;5068706;28;20220;-72
2024/04/05 06:19:11;;;;;;;19.63;4.75;;;;;;;;;;5081306;28;20223;-72
2024/04/05 06:21:37;;;;;;;21.98;4.85;;;;;;;;;;5079979;28;20238;-72
2024/04/05 06:24:03;;;;;;;23.05;4.68;;;;;;;;;;5087102;28;20196;-72
2024/04/05 06:26:29;;;;;;;22.80;4.85;;;;;;;;;;5070946;28;20303;-72
2024/04/05 06:28:55;;;;;;;16.27;4.28;;;;;;;;;;5081657;28;20206;-72
2024/04/05 06:31:20;;;;;;;20.92;4.20;;;;;;;;;;5088065;28;20858;-72
2024/04/05 06:33:46;;;;;;;16.10;4.05;;;;;;;;;;5080193;28;20195;-71
2024/04/05 06:36:11;;;;;;;23.17;4.60;;;;;;;;;;5087677;28;20190;-71
2024/04/05 06:38:36;;;;;;;20.30;4.13;;;;;;;;;;5082877;28;20308;-71
2024/04/05 06:41:02;;;;;;;19.65;4.53;;;;;;;;;;5085676;28;20261;-71
2024/04/05 06:43:29;;;;;;;19.30;4.88;;;;;;;;;;5081872;28;20181;-71
2024/04/05 06:46:00;;;;;;;21.40;4.60;;;;;;;;;;5081081;28;20201;-72
2024/04/05 06:48:26;;;;;;;15.20;4.20;;;;;;;;;;5077233;28;20184;-72
2024/04/05 06:50:51;;;;;;;19.90;4.50;;;;;;;;;;5083377;28;20600;-71
2024/04/05 06:53:19;;;;;;;17.88;4.72;;;;;;;;;;5075243;28;20196;-71
2024/04/05 06:55:48;;;;;;;13.70;4.07;;;;;;;;;;5080545;28;20734;-71
2024/04/05 06:58:15;;;;;;;16.63;4.30;;;;;;;;;;5087689;28;20186;-71
2024/04/05 07:00:45;;;;;;;20.23;4.70;;;;;;;;;;5078271;28;20561;-71
2024/04/05 07:03:12;;;;;;;17.98;4.40;;;;;;;;;;5076000;28;20180;-71
2024/04/05 07:05:38;;;;;;;19.75;3.72;;;;;;;;;;5077163;28;20662;-71
2024/04/05 07:08:05;;;;;;;17.25;4.38;;;;;;;;;;5079732;28;20202;-71
2024/04/05 07:10:32;;;;;;;15.90;4.07;;;;;;;;;;5087699;28;20188;-71
2024/04/05 07:12:57;;;;;;;14.55;3.85;;;;;;;;;;5079274;28;20193;-71
2024/04/05 07:15:23;;;;;;;19.27;3.88;;;;;;;;;;5077415;28;20245;-71
2024/04/05 07:17:54;;;;;;;13.10;3.45;;;;;;;;;;5085985;28;20234;-72
2024/04/05 07:20:19;;;;;;;19.83;4.05;;;;;;;;;;5060742;28;20613;-72
2024/04/05 07:22:46;;;;;;;11.80;3.83;;;;;;;;;;5084084;28;20188;-71
2024/04/05 07:25:11;;;;;;;12.25;3.30;;;;;;;;;;5087566;28;20223;-72
2024/04/05 07:27:37;;;;;;;15.98;3.25;;;;;;;;;;5089449;28;20687;-72
2024/04/05 07:30:04;;;;;;;17.08;3.17;;;;;;;;;;5089300;28;20249;-72
2024/04/05 07:32:29;;;;;;;16.17;3.88;;;;;;;;;;5078344;28;20691;-73
2024/04/05 07:34:55;;;;;;;16.45;3.42;;;;;;;;;;5081476;28;20191;-72
2024/04/05 07:37:20;;;;;;;13.27;3.65;;;;;;;;;;5079279;28;20267;-73
2024/04/05 07:39:47;;;;;;;15.45;3.85;;;;;;;;;;5091991;28;20219;-72
2024/04/05 07:42:12;;;;;;;15.15;3.58;;;;;;;;;;5083663;28;20212;-73
2024/04/05 07:44:38;;;;;;;13.77;3.13;;;;;;;;;;5077261;28;20189;-73
2024/04/05 07:47:03;;;;;;;14.68;3.47;;;;;;;;;;5093570;28;20591;-73
2024/04/05 07:49:29;;;;;;;11.43;3.33;;;;;;;;;;5084064;28;20221;-72
2024/04/05 07:51:54;;;;;;;15.02;3.08;;;;;;;;;;5071119;28;20260;-72
2024/04/05 07:54:20;;;;;;;11.00;3.47;;;;;;;;;;5082905;28;20189;-72
2024/04/05 07:56:47;;;;;;;10.40;2.88;;;;;;;;;;5077557;28;20188;-72
2024/04/05 07:59:12;;;;;;;15.20;3.50;;;;;;;;;;5090715;28;20528;-72
2024/04/05 08:01:38;;;;;;;13.57;3.17;;;;;;;;;;5084863;28;20493;-72
2024/04/05 08:04:03;;;;;;;10.82;3.28;;;;;;;;;;5087471;28;20180;-72
2024/04/05 08:06:29;;;;;;;10.13;2.65;;;;;;;;;;5089263;28;20196;-72
2024/04/05 08:08:54;;;;;;;12.88;3.67;;;;;;;;;;5090298;28;20219;-72
2024/04/05 08:11:19;;;;;;;8.98;2.83;;;;;;;;;;5073339;28;20222;-72
2024/04/05 08:13:45;;;;;;;10.75;2.78;;;;;;;;;;5076097;28;20266;-71
2024/04/05 08:16:10;;;;;;;11.02;2.95;;;;;;;;;;5089808;28;20262;-72
2024/04/05 08:18:36;;;;;;;11.88;3.08;;;;;;;;;;5065902;28;20205;-72
2024/04/05 08:21:05;;;;;;;10.15;2.90;;;;;;;;;;5080700;28;20184;-71
2024/04/05 08:23:30;;;;;;;15.40;3.80;;;;;;;;;;5076764;28;20433;-72
2024/04/05 08:25:56;;;;;;;14.27;3.53;;;;;;;;;;5089974;28;20211;-72
2024/04/05 08:28:21;;;;;;;10.82;3.00;;;;;;;;;;5088208;28;20211;-72
2024/04/05 08:30:51;;;;;;;15.73;2.70;;;;;;;;;;5080196;28;20198;-72
2024/04/05 08:33:16;;;;;;;13.10;2.80;;;;;;;;;;5082450;28;20176;-71
2024/04/05 08:35:50;;;;;;;15.35;3.63;;;;;;;;;;5088111;28;20274;-71
2024/04/05 08:38:16;;;;;;;9.13;2.50;;;;;;;;;;5085831;28;20227;-70
2024/04/05 08:40:41;;;;;;;10.43;2.20;;;;;;;;;;5087787;28;20192;-70
2024/04/05 08:43:09;;;;;;;10.93;2.78;;;;;;;;;;5085104;28;20188;-72
2024/04/05 08:45:35;;;;;;;12.25;2.50;;;;;;;;;;5075280;28;20199;-70
2024/04/05 08:48:04;;;;;;;8.63;2.40;;;;;;;;;;5081551;28;20275;-71
2024/04/05 08:50:31;;;;;;;9.52;2.15;;;;;;;;;;5083326;28;20188;-71
2024/04/05 08:52:57;;;;;;;10.32;2.75;;;;;;;;;;5081311;28;20185;-72
2024/04/05 08:55:25;;;;;;;7.93;2.20;;;;;;;;;;5088202;28;20184;-72
2024/04/05 08:57:51;;;;;;;11.90;2.65;;;;;;;;;;5086793;28;20184;-71
2024/04/05 09:00:23;;;;;;;9.40;2.53;;;;;;;;;;5079380;28;20660;-71
2024/04/05 09:02:53;;;;;;;7.50;2.10;;;;;;;;;;5079168;28;20207;-71
2024/04/05 09:05:19;;;;;;;10.45;2.47;;;;;;;;;;5087877;28;20597;-71
2024/04/05 09:08:06;;;;;;;11.60;2.33;;;;;;;;;;5087157;28;20230;-72
2024/04/05 09:10:32;;;;;;;12.27;3.03;;;;;;;;;;5079139;28;20188;-71
2024/04/05 09:13:00;;;;;;;6.50;1.83;;;;;;;;;;5078026;28;20318;-71
2024/04/05 09:15:26;;;;;;;8.43;2.10;;;;;;;;;;5084875;28;20249;-71
2024/04/05 09:17:53;;;;;;;9.05;2.38;;;;;;;;;;5079644;28;20184;-71
2024/04/05 09:20:24;;;;;;;8.02;2.17;;;;;;;;;;5080242;28;20224;-71
2024/04/05 09:22:58;;;;;;;10.27;2.40;;;;;;;;;;5077802;28;20188;-70
2024/04/05 09:25:23;;;;;;;8.13;2.30;;;;;;;;;;5081658;28;20283;-71
2024/04/05 09:27:50;;;;;;;9.68;2.88;;;;;;;;;;5074359;28;20349;-71
2024/04/05 09:30:15;;;;;;;11.35;2.50;;;;;;;;;;5079620;28;20191;-71
2024/04/05 09:32:41;;;;;;;9.98;2.72;;;;;;;;;;5075008;28;20659;-72
2024/04/05 09:35:09;;;;;;;9.32;2.80;;;;;;;;;;5082137;28;20256;-71
2024/04/05 09:37:35;;;;;;;11.88;2.72;;;;;;;;;;5075015;28;20230;-71
2024/04/05 09:40:04;;;;;;;9.90;2.10;;;;;;;;;;5090290;28;20266;-71
2024/04/05 09:42:30;;;;;;;11.07;1.90;;;;;;;;;;5086250;28;20187;-71
2024/04/05 09:44:56;;;;;;;12.48;2.33;;;;;;;;;;5080066;28;20188;-72
2024/04/05 09:47:31;;;;;;;8.15;2.33;;;;;;;;;;5085825;28;20208;-70
2024/04/05 09:49:58;;;;;;;11.82;2.60;;;;;;;;;;5077287;28;20187;-73
2024/04/05 09:52:31;;;;;;;8.88;2.03;;;;;;;;;;5083168;28;20199;-74
2024/04/05 09:55:00;;;;;;;16.75;2.35;;;;;;;;;;5087723;28;20199;-78
2024/04/05 09:57:26;;;;;;;7.75;2.10;;;;;;;;;;5088305;28;20191;-77
2024/04/05 09:59:53;;;;;;;11.02;2.58;;;;;;;;;;5080392;28;20363;-77
2024/04/05 10:02:20;;;;;;;13.18;2.50;;;;;;;;;;5071162;28;20208;-76
2024/04/05 10:04:46;;;;;;;7.53;2.20;;;;;;;;;;5082237;28;20559;-76
2024/04/05 10:07:12;;;;;;;7.22;2.13;;;;;;;;;;5081533;28;20209;-76
2024/04/05 10:09:37;;;;;;;11.32;3.03;;;;;;;;;;5074919;28;20199;-76
2024/04/05 10:12:14;;;;;;;13.63;2.97;;;;;;;;;;5085596;28;20195;-78
2024/04/05 10:14:41;;;;;;;9.45;2.53;;;;;;;;;;5091363;28;20616;-78
2024/04/05 10:17:15;;;;;;;11.88;2.47;;;;;;;;;;5073582;28;20172;-75
2024/04/05 10:19:41;;;;;;;11.85;2.47;;;;;;;;;;5063299;28;20208;-76
2024/04/05 10:22:18;;;;;;;5.90;2.63;;;;;;;;;;5080790;28;20192;-77
2024/04/05 10:24:44;;;;;;;6.32;2.38;;;;;;;;;;5070527;28;20699;-76
2024/04/05 10:27:22;;;;;;;8.82;2.35;;;;;;;;;;5065607;28;20628;-77
2024/04/05 10:29:57;;;;;;;7.75;2.50;;;;;;;;;;5072343;28;20279;-76
2024/04/05 10:32:23;;;;;;;11.80;2.60;;;;;;;;;;5083966;28;20191;-75
2024/04/05 10:34:48;;;;;;;10.85;2.72;;;;;;;;;;5079517;28;20540;-77
2024/04/05 10:37:16;;;;;;;9.50;2.65;;;;;;;;;;5078783;28;20253;-77
2024/04/05 10:39:41;;;;;;;12.88;3.10;;;;;;;;;;5085166;28;20236;-76
2024/04/05 10:42:07;;;;;;;8.65;2.40;;;;;;;;;;5080930;28;20191;-76
2024/04/05 10:44:33;;;;;;;12.07;2.53;;;;;;;;;;5074805;28;20194;-76
2024/04/05 10:46:59;;;;;;;9.18;2.42;;;;;;;;;;5073692;28;20220;-76
2024/04/05 10:49:25;;;;;;;6.72;2.65;;;;;;;;;;5080106;28;20263;-77
2024/04/05 10:51:57;;;;;;;7.15;2.47;;;;;;;;;;5087208;28;20195;-78
2024/04/05 10:54:23;;;;;;;9.93;2.50;;;;;;;;;;5079845;28;20181;-74
2024/04/05 10:56:48;;;;;;;8.43;2.63;;;;;;;;;;5078704;28;20647;-74
2024/04/05 10:59:17;;;;;;;6.78;2.58;;;;;;;;;;5086691;28;20595;-73
2024/04/05 11:01:43;;;;;;;9.27;2.55;;;;;;;;;;5081665;28;20380;-74
2024/04/05 11:04:12;;;;;;;9.88;3.40;;;;;;;;;;5080023;28;20192;-74
2024/04/05 11:06:38;;;;;;;7.07;2.80;;;;;;;;;;5082133;28;20289;-74
2024/04/05 11:09:06;;;;;;;9.90;2.60;;;;;;;;;;5089259;28;20363;-74
2024/04/05 11:11:34;;;;;;;6.75;2.47;;;;;;;;;;5091390;28;20187;-73
2024/04/05 11:14:07;;;;;;;6.63;2.13;;;;;;;;;;5077112;28;20263;-72
2024/04/05 11:16:34;;;;;;;7.68;2.67;;;;;;;;;;5081740;28;20180;-72
2024/04/05 11:18:59;;;;;;;8.50;2.22;;;;;;;;;;5090048;28;20273;-72
2024/04/05 11:21:26;;;;;;;8.75;3.53;;;;;;;;;;5086430;28;20185;-72
2024/04/05 11:23:53;;;;;;;12.18;2.58;;;;;;;;;;5088169;28;20671;-71
2024/04/05 11:26:20;;;;;;;7.80;2.08;;;;;;;;;;5072366;28;20208;-71
2024/04/05 11:28:47;;;;;;;9.38;3.03;;;;;;;;;;5076173;28;20212;-71
2024/04/05 11:31:15;;;;;;;10.32;2.60;;;;;;;;;;5074248;28;20200;-72
2024/04/05 11:33:41;;;;;;;7.15;2.17;;;;;;;;;;5077958;28;20671;-71
2024/04/05 11:36:08;;;;;;;8.52;2.08;;;;;;;;;;5091547;28;20180;-71
2024/04/05 11:38:33;;;;;;;6.65;2.47;;;;;;;;;;5076743;28;20298;-71
2024/04/05 11:40:59;;;;;;;7.18;2.15;;;;;;;;;;5079028;28;20652;-72
2024/04/05 11:43:24;;;;;;;9.15;2.15;;;;;;;;;;5089063;28;20719;-72
2024/04/05 11:45:50;;;;;;;5.68;2.10;;;;;;;;;;5080227;28;20197;-71
2024/04/05 11:48:15;;;;;;;4.00;2.10;;;;;;;;;;5072577;28;20675;-71
2024/04/05 11:50:41;;;;;;;8.02;2.30;;;;;;;;;;5084183;28;20283;-71
2024/04/05 11:53:06;;;;;;;7.53;2.00;;;;;;;;;;5087488;28;20279;-72
2024/04/05 11:55:32;;;;;;;10.45;2.20;;;;;;;;;;5078038;28;20226;-71
2024/04/05 11:57:58;;;;;;;5.65;1.98;;;;;;;;;;5089677;28;20644;-71
2024/04/05 12:00:24;;;;;;;5.78;2.10;;;;;;;;;;5073225;28;20682;-72
2024/04/05 12:02:50;;;;;;;7.30;2.25;;;;;;;;;;5081965;28;20188;-71
2024/04/05 12:05:16;;;;;;;5.75;2.17;;;;;;;;;;5070307;28;20214;-71
2024/04/05 12:07:44;;;;;;;6.40;2.20;;;;;;;;;;5076012;28;20304;-70
2024/04/05 12:10:10;;;;;;;5.47;2.08;;;;;;;;;;5069744;28;20225;-70
2024/04/05 12:12:36;;;;;;;7.72;2.33;;;;;;;;;;5087785;28;20199;-70
2024/04/05 12:15:01;;;;;;;7.18;2.00;;;;;;;;;;5084971;28;20681;-71
2024/04/05 12:17:27;;;;;;;7.85;2.30;;;;;;;;;;5085324;28;20184;-71
2024/04/05 12:19:53;;;;;;;3.97;1.77;;;;;;;;;;5087833;28;20287;-71
2024/04/05 12:22:18;;;;;;;4.00;1.75;;;;;;;;;;5084861;28;20348;-71
2024/04/05 12:24:48;;;;;;;5.05;2.10;;;;;;;;;;5087151;28;20256;-72
2024/04/05 12:27:14;;;;;;;6.80;2.08;;;;;;;;;;5089209;28;20212;-75
2024/04/05 12:29:41;;;;;;;5.75;2.20;;;;;;;;;;5088859;28;20237;-75
2024/04/05 12:32:07;;;;;;;9.73;2.25;;;;;;;;;;5085135;28;20192;-75
2024/04/05 12:34:32;;;;;;;5.72;2.67;;;;;;;;;;5085542;28;20176;-74
2024/04/05 12:37:08;;;;;;;15.15;2.20;;;;;;;;;;5083445;28;20684;-74
2024/04/05 12:39:34;;;;;;;7.65;2.08;;;;;;;;;;5081293;28;20235;-73
2024/04/05 12:41:59;;;;;;;6.25;1.92;;;;;;;;;;5083639;28;20180;-73
2024/04/05 12:44:28;;;;;;;4.82;1.98;;;;;;;;;;5078174;28;20255;-73
2024/04/05 12:46:54;;;;;;;7.75;1.73;;;;;;;;;;5078004;28;20296;-72
2024/04/05 12:49:19;;;;;;;4.88;2.03;;;;;;;;;;5072656;28;20719;-75
2024/04/05 12:51:45;;;;;;;8.55;2.42;;;;;;;;;;5086894;28;20547;-76
2024/04/05 12:54:10;;;;;;;8.63;2.70;;;;;;;;;;5084204;28;20597;-78
2024/04/05 12:56:36;;;;;;;10.25;2.90;;;;;;;;;;5083108;28;20347;-79
2024/04/05 12:59:02;;;;;;;9.43;2.75;;;;;;;;;;5080919;28;20214;-79
2024/04/05 13:01:28;;;;;;;12.00;2.35;;;;;;;;;;5071428;28;20176;-79
2024/04/05 13:03:54;;;;;;;8.38;2.80;;;;;;;;;;5087457;28;20176;-77
2024/04/05 13:06:19;;;;;;;12.25;3.00;;;;;;;;;;5077253;28;20258;-78
2024/04/05 13:08:46;;;;;;;9.50;3.08;;;;;;;;;;5065352;28;20180;-78
2024/04/05 13:11:13;;;;;;;10.20;3.00;;;;;;;;;;5086307;28;20215;-77
2024/04/05 13:13:40;;;;;;;7.93;3.22;;;;;;;;;;5084448;28;20188;-77
2024/04/05 13:16:09;;;;;;;6.78;2.85;;;;;;;;;;5085067;28;20263;-77
2024/04/05 13:18:35;;;;;;;9.45;3.00;;;;;;;;;;5085175;28;20699;-77
2024/04/05 13:21:12;;;;;;;8.23;3.00;;;;;;;;;;5085865;28;20192;-77
2024/04/05 13:23:42;;;;;;;9.82;2.72;;;;;;;;;;5112220;27;20516;-77
2024/04/05 13:26:26;;;;;;;8.35;3.10;;;;;;;;;;5076935;28;20201;-77
2024/04/05 13:28:53;;;;;;;6.35;3.00;;;;;;;;;;5080206;28;20284;-76
2024/04/05 13:31:23;;;;;;;6.82;2.53;;;;;;;;;;5072098;28;20180;-75
2024/04/05 13:33:49;;;;;;;7.20;2.50;;;;;;;;;;5083545;28;20575;-74
2024/04/05 13:36:20;;;;;;;4.35;2.40;;;;;;;;;;5087313;28;20673;-73
2024/04/05 13:38:46;;;;;;;7.90;2.78;;;;;;;;;;5088199;28;20320;-72
2024/04/05 13:41:11;;;;;;;6.63;2.20;;;;;;;;;;5081958;28;20267;-73
2024/04/05 13:43:38;;;;;;;4.85;2.20;;;;;;;;;;5084094;28;20269;-72
2024/04/05 13:46:16;;;;;;;5.25;1.95;;;;;;;;;;5086223;28;20679;-72
2024/04/05 13:48:44;;;;;;;5.45;1.60;;;;;;;;;;5083036;28;20202;-72
2024/04/05 13:51:11;;;;;;;7.53;1.67;;;;;;;;;;5081142;28;20187;-71
2024/04/05 13:53:37;;;;;;;5.88;1.95;;;;;;;;;;5074192;28;20184;-71
2024/04/05 13:56:07;;;;;;;6.20;1.90;;;;;;;;;;5081257;28;20180;-72
2024/04/05 13:58:36;;;;;;;5.03;2.30;;;;;;;;;;5082809;28;20667;-72
2024/04/05 14:01:06;;;;;;;6.50;1.73;;;;;;;;;;5081636;28;20537;-71
2024/04/05 14:03:32;;;;;;;5.03;2.03;;;;;;;;;;5079593;28;20196;-72
2024/04/05 14:05:58;;;;;;;3.45;1.67;;;;;;;;;;5078598;28;20192;-72
2024/04/05 14:08:25;;;;;;;8.30;2.13;;;;;;;;;;5079734;28;20686;-72
2024/04/05 14:10:53;;;;;;;4.20;1.90;;;;;;;;;;5083552;28;20211;-72
2024/04/05 14:13:19;;;;;;;4.35;2.08;;;;;;;;;;5080020;28;20189;-72
2024/04/05 14:15:45;;;;;;;6.28;2.42;;;;;;;;;;5078548;28;20250;-71
2024/04/05 14:18:11;;;;;;;4.28;2.00;;;;;;;;;;5084191;28;20663;-71
2024/04/05 14:20:40;;;;;;;3.72;1.80;;;;;;;;;;5083376;28;20313;-71
2024/04/05 14:23:06;;;;;;;6.15;1.98;;;;;;;;;;5076924;28;20267;-70
2024/04/05 14:25:33;;;;;;;7.97;2.22;;;;;;;;;;5080273;28;20188;-71
2024/04/05 14:27:58;;;;;;;5.97;1.95;;;;;;;;;;5077611;28;20730;-71
2024/04/05 14:30:24;;;;;;;2.75;1.77;;;;;;;;;;5079642;28;20269;-70